Main page
METAR-TAF:

METAR-TAF

Airports :

Dehradun Airport

Dehradun, India

latitude: 30-11-23N, longitude: 78-10-49E, elevation: 558 m

METAR: missing

Time: 23:27 (17:57 UTC)

Forecast

The report was made 6 hours and 57 minutes ago, at 11:00 UTC
Forecast valid from 16 at 12 UTC to 16 at 21 UTC
Wind 5 kt from the Southwest
Visibility: 2500 m
Scattered clouds at a height of 1000 ft
Broken clouds at a height of 2000 ft
Broken clouds at a height of 6000 ft
mist, light rain
Temporary
from 16 at 13 UTC to 16 at 16 UTC
Visibility: 1500 m
Few clouds at a height of 3000 ft, Cumulonimbus.
Overcast at a height of 6000 ft
thunderstorm, light rain

TAF: VIDN 161100Z 1612/1621 23005KT 2500 BR -RA SCT010 BKN020 BKN060 TEMPO 1613/1616 1500 -TSRA FEW030CB OVC060

Weather observations and forecasts of more than 4000 airports (METAR and TAF reports).

The available stations are represented by yellow and red dots on the map.

Hover mouse over dot to see the name of the station.

Then click to see weather observations and forecasts.

To change the map : click on the green buttons with a black cross to zoom in, on the green button with a dash to zoom out, or on the green arrows for adjacent maps.


METAR-TAF: